• Join FlightAware (Why Join?)
  • Login
  • US Flag 
04:14AM EDT


 

Airport Tracker/Info


-or-


 

Live Flight TrackerFlight Track Log ✈ ASQ4661 ✈ 08-May-2013 ✈ KIAH - KRSW

Flight Track Log - Related Links

Times and Time Zones

All times are in EDT time to prevent confusion due to time zone crossing. See the ASQ4661 flight status page for this flight to view local times or setup timezone preferences in your user account.

Time Position Orientation Groundspeed Altitude Reporting Facility
EDT Latitude Longitude Course Direction KTS MPH feet Rate Location/Type
02:49PM 29.9594 -95.3414 108° East 165 190 700  Level Houston Center
02:50PM 29.9403 -95.2714 108° East 219 252 3,000 1,920 Climbing Houston Center
02:51PM 29.9331 -95.2347 103° East 217 250 4,300 2,280 Climbing Houston Center
02:52PM 29.9253 -95.1500 96° East 260 299 6,800 2,400 Climbing Houston Center
02:53PM 29.9194 -95.0628 94° East 270 311 9,300 1,860 Climbing Houston Center
02:54PM 29.9103 -94.9439 95° East 314 361 10,700 1,320 Climbing Houston Center
02:55PM 29.9017 -94.8253 95° East 363 418 12,100 1,620 Climbing Houston Center
02:56PM 29.8928 -94.7050 95° East 375 432 14,100 1,740 Climbing Houston Center
02:57PM 29.8822 -94.5819 96° East 382 440 15,800 1,800 Climbing Houston Center
02:58PM 29.8733 -94.4586 95° East 385 443 17,900 1,980 Climbing Houston Center
02:59PM 29.8633 -94.3397 96° East 375 432 19,900 1,440 Climbing Houston Center
03:00PM 29.8583 -94.2161 93° East 385 443 21,000 960 Climbing Houston Center
03:01PM 29.8547 -94.0761 92° East 409 471 22,000 1,020 Climbing Houston Center
03:02PM 29.8672 -93.9142 85° East 424 488 23,200 1,020 Climbing Houston Center
03:03PM 29.8817 -93.7764 83° East 434 499 24,200 960 Climbing Houston Center
03:04PM 29.8969 -93.6381 83° East 440 506 25,200 960 Climbing Houston Center
03:05PM 29.9094 -93.4989 84° East 441 507 26,200 960 Climbing Houston Center
03:06PM 29.9250 -93.3586 83° East 446 513 27,200 1,020 Climbing Houston Center
03:07PM 29.9414 -93.1906 84° East 446 513 28,400 1,020 Climbing Houston Center
03:08PM 29.9553 -93.0492 83° East 448 516 29,400 960 Climbing Houston Center
03:09PM 29.9697 -92.9111 83° East 441 507 30,400 960 Climbing Houston Center
03:10PM 29.9808 -92.7700 85° East 444 511 31,400 960 Climbing Houston Center
03:11PM 29.9933 -92.6275 84° East 448 516 32,400 1,020 Climbing Houston Center
03:12PM 30.0061 -92.4567 85° East 449 517 33,600 1,020 Climbing Houston Center
03:14PM 30.0178 -92.3147 85° East 446 513 34,600 660 Climbing Houston Center
03:15PM 30.0289 -92.1728 85° East 445 512 35,000 180 Climbing Houston Center
03:16PM 30.0400 -92.0264 85° East 458 527 35,000  Level Houston Center
03:17PM 30.0500 -91.8747 86° East 473 544 35,000  Level Houston Center
03:18PM 30.0639 -91.7044 85° East 481 554 35,000  Level Houston Center
03:19PM 30.0747 -91.5525 85° East 478 550 35,000  Level Houston Center
03:20PM 30.0850 -91.4008 85° East 475 547 35,000  Level Houston Center
03:21PM 30.0994 -91.2181 85° East 477 549 35,000  Level Houston Center
03:22PM 30.1097 -91.0667 85° East 476 548 35,000  Level Houston Center
03:23PM 30.1242 -90.9144 84° East 477 549 35,000 -60 Level Houston Center
03:24PM 30.1617 -90.7689 73° East 475 547 34,900  Descending Houston Center
03:25PM 30.1961 -90.6267 74° East 466 536 35,000  Climbing Houston Center
03:26PM 30.2311 -90.4869 74° East 457 526 35,000  Level Houston Center
03:27PM 30.2725 -90.3119 75° East 466 536 35,000  Level Houston Center
03:28PM 30.3078 -90.1647 74° East 474 545 35,000  Level Houston Center
03:29PM 30.3433 -90.0158 74° East 477 549 35,000  Level Houston Center
03:30PM 30.3778 -89.8672 75° East 483 556 35,000  Level Houston Center
03:31PM 30.4150 -89.7167 74° East 486 559 35,000  Level Houston Center
03:32PM 30.4539 -89.5519 75° East 484 557 35,000  Level Houston Center
03:33PM 30.4881 -89.4039 75° East 477 549 35,000  Level Houston Center
03:34PM 30.5225 -89.2544 75° East 480 552 35,000  Level Houston Center
03:35PM 30.5628 -89.0736 75° East 481 554 35,000  Level Houston Center
03:36PM 30.5914 -88.9406 76° East 479 551 35,000  Level Houston Center
03:37PM 30.6258 -88.7917 75° East 479 551 35,000  Level Houston Center
03:38PM 30.6664 -88.6153 75° East 476 548 35,000  Level Houston Center
03:39PM 30.7000 -88.4675 75° East 476 548 35,000  Level Houston Center
03:40PM 30.7275 -88.3297 77° East 477 549 35,000  Level Houston Center
03:41PM 30.7381 -88.1414 86° East 486 559 35,000  Level Houston Center
03:43PM 30.7506 -87.9833 85° East 489 563 35,000  Level Houston Center
03:44PM 30.7608 -87.8239 86° East 493 567 35,000  Level Houston Center
03:45PM 30.7700 -87.6606 86° East 494 568 35,000  Level Houston Center
03:46PM 30.7797 -87.5028 86° East 491 565 35,000  Level Houston Center
03:47PM 30.7917 -87.2983 86° East 498 573 35,000  Level Jacksonville Center
03:48PM 30.8011 -87.1392 86° East 493 567 35,000  Level Jacksonville Center
03:49PM 30.8106 -86.9800 86° East 493 567 35,000  Level Jacksonville Center
03:50PM 30.8217 -86.8208 85° East 493 567 35,000  Level Jacksonville Center
03:51PM 30.8264 -86.6664 88° East 493 567 35,000  Level Jacksonville Center
03:52PM 30.8228 -86.5089 91° East 488 562 35,000  Level Jacksonville Center
03:53PM 30.8167 -86.3539 93° East 482 555 35,000  Level Jacksonville Center
03:54PM 30.8144 -86.1967 91° East 482 555 35,000  Level Jacksonville Center
03:55PM 30.8103 -86.0392 92° East 482 555 35,000  Level Jacksonville Center
03:56PM 30.8100 -85.8772 90° East 482 555 35,000  Level Jacksonville Center
03:57PM 30.8053 -85.7175 92° East 488 562 35,000  Level Jacksonville Center
03:58PM 30.8025 -85.5531 91° East 498 573 35,000  Level Jacksonville Center
03:59PM 30.7994 -85.3956 91° East 498 573 35,000  Level Jacksonville Center
04:00PM 30.7942 -85.2336 92° East 498 573 35,000  Level Jacksonville Center
04:01PM 30.7739 -85.0783 99° East 498 573 35,000  Level Jacksonville Center
04:02PM 30.7322 -84.9419 110° East 448 516 35,000  Level Jacksonville Center
04:03PM 30.7097 -84.7844 99° East 469 540 35,000  Level Jacksonville Center
04:04PM 30.6931 -84.6247 97° East 486 559 35,000  Level Jacksonville Center
04:05PM 30.6725 -84.4481 98° East 500 575 35,000  Level Jacksonville Center
04:06PM 30.6536 -84.2883 98° East 505 581 35,000  Level Jacksonville Center
04:07PM 30.6028 -84.1403 112° Southeast 493 567 35,000  Level Jacksonville Center
04:08PM 30.4950 -84.0522 145° Southeast 453 521 35,000  Level Jacksonville Center
04:09PM 30.3683 -83.9928 158° South 453 521 35,000  Level Jacksonville Center
04:10PM 30.2456 -83.9361 158° South 464 534 35,000  Level Jacksonville Center
04:11PM 30.1228 -83.8772 157° South 475 547 35,000  Level Jacksonville Center
04:12PM 30.0000 -83.8231 159° South 475 547 35,000 -60 Level Jacksonville Center
04:13PM 29.8753 -83.7669 159° South 475 547 34,900  Descending Jacksonville Center
04:14PM 29.7567 -83.7083 157° South 470 541 35,000  Climbing Jacksonville Center
04:15PM 29.6400 -83.6547 158° South 465 535 35,000 -480 Level Jacksonville Center
04:16PM 29.5172 -83.6014 159° South 465 535 34,100 -720 Descending Jacksonville Center
04:18PM 29.2861 -83.4925 158° South 459 528 33,000 -420 Descending Jacksonville Center
04:19PM 29.1778 -83.4419 158° South 454 522 33,000  Level Jacksonville Center
04:20PM 29.0589 -83.3892 159° South 454 522 33,000  Level Jacksonville Center
04:21PM 28.9400 -83.3361 159° South 454 522 33,000  Level Jacksonville Center
04:22PM 28.8192 -83.2883 161° South 454 522 33,000  Level Jacksonville Center
04:23PM 28.6919 -83.2428 163° South 465 535 33,000  Level Jacksonville Center
04:24PM 28.5711 -83.1997 163° South 465 535 33,000 -660 Level Jacksonville Center
04:25PM 28.4522 -83.1569 162° South 459 528 31,700 -1,080 Descending Jacksonville Center
04:26PM 28.3564 -83.0883 148° Southeast 440 506 30,900 -960 Descending Jacksonville Center
04:27PM 28.2772 -83.0153 141° Southeast 398 458 29,800 -1,320 Descending Jacksonville Center
04:28PM 28.1958 -82.9539 146° Southeast 373 429 28,300 -1,800 Descending Jacksonville Center
04:28PM 28.1564 -82.9569 184° South 364 419 27,500 -1,020 Descending Miami Center
04:29PM 28.0669 -83.0064 206° Southwest 320 368 27,000 -300 Descending Miami Center
04:30PM 27.9539 -82.9672 163° South 370 426 27,000 -360 Level Miami Center
04:31PM 27.8494 -82.9172 157° South 415 478 26,300 -1,200 Descending Miami Center
04:32PM 27.7186 -82.8539 157° South 451 519 24,600 -1,800 Descending Miami Center
04:33PM 27.6039 -82.8033 159° South 451 519 22,800 -1,800 Descending Miami Center
04:34PM 27.4933 -82.7556 159° South 438 504 21,100 -900 Descending Miami Center
04:35PM 27.3950 -82.7108 158° South 429 494 21,000 -60 Descending Miami Center
04:36PM 27.2822 -82.6583 158° South 429 494 21,000 -1,200 Level Miami Center
04:37PM 27.1828 -82.5881 148° Southeast 419 482 18,700 -2,340 Descending Miami Center
04:38PM 27.0897 -82.5158 145° Southeast 414 476 16,400 -2,400 Descending Miami Center
04:39PM 26.9986 -82.4461 146° Southeast 409 471 14,000 -2,460 Descending Miami Center
04:40PM 26.9072 -82.3742 145° Southeast 409 471 11,500 -1,500 Descending Miami Center
04:41PM 26.8222 -82.3075 145° Southeast 398 458 11,000 -300 Descending Miami Center
04:42PM 26.7350 -82.2358 144° Southeast 392 451 11,000 -420 Level Miami Center
04:43PM 26.6519 -82.1717 145° Southeast 387 445 10,200 -540 Descending Miami Center
04:44PM 26.5686 -82.1053 145° Southeast 376 433 10,000 -120 Descending Miami Center
04:45PM 26.4875 -82.0414 145° Southeast 369 425 10,000 -180 Level Miami Center
04:46PM 26.4192 -81.9689 136° Southeast 362 417 9,700 -1,320 Descending Miami Center
04:47PM 26.3972 -81.8797 105° East 321 369 7,400 -2,340 Descending Miami Center
04:49PM 26.5254 -81.7606 50° Northeast  Level FlightAware Approximate
04:56PM 26.5333 -81.7500 50° Northeast  Level FlightAware Approximate
04:57PM 26.5362 -81.7552 50° Northeast  Level Estimated
04:58PM 26.5333 -81.7500 50° Northeast  Level FlightAware Approximate
04:59PM 26.5362 -81.7552 50° Northeast  Level Estimated
05:00PM 26.5333 -81.7500 50° Northeast  Level FlightAware Approximate
05:01PM 26.5362 -81.7552 50° Northeast  Level Estimated
05:02PM 26.5333 -81.7500 50° Northeast  Level FlightAware Approximate
05:03PM 26.5362 -81.7552 50° Northeast  Level Estimated
05:04PM 26.5333 -81.7500 50° Northeast  Level FlightAware Approximate